sensor_id;sensor_type;location;lat;lon;timestamp;P1;durP1;ratioP1;P2;durP2;ratioP2
12224;SDS011;6175;50.956;11.064;2023-08-21T00:00:52;11.75;;;10.75;;
12224;SDS011;6175;50.956;11.064;2023-08-21T00:03:19;13.05;;;11.95;;
12224;SDS011;6175;50.956;11.064;2023-08-21T00:05:47;12.05;;;11.00;;
12224;SDS011;6175;50.956;11.064;2023-08-21T00:08:14;13.80;;;12.60;;
12224;SDS011;6175;50.956;11.064;2023-08-21T00:10:41;14.05;;;12.85;;
12224;SDS011;6175;50.956;11.064;2023-08-21T00:13:08;13.90;;;12.70;;
12224;SDS011;6175;50.956;11.064;2023-08-21T00:15:37;15.30;;;13.85;;
12224;SDS011;6175;50.956;11.064;2023-08-21T00:18:04;14.77;;;13.48;;
12224;SDS011;6175;50.956;11.064;2023-08-21T00:20:31;17.27;;;15.77;;
12224;SDS011;6175;50.956;11.064;2023-08-21T00:23:00;16.30;;;14.70;;
12224;SDS011;6175;50.956;11.064;2023-08-21T00:25:27;18.25;;;16.55;;
12224;SDS011;6175;50.956;11.064;2023-08-21T00:27:54;16.92;;;15.43;;
12224;SDS011;6175;50.956;11.064;2023-08-21T00:30:21;18.95;;;17.05;;
12224;SDS011;6175;50.956;11.064;2023-08-21T00:32:48;17.05;;;15.55;;
12224;SDS011;6175;50.956;11.064;2023-08-21T00:35:15;15.68;;;14.18;;
12224;SDS011;6175;50.956;11.064;2023-08-21T00:37:42;16.25;;;14.65;;
12224;SDS011;6175;50.956;11.064;2023-08-21T00:40:11;17.08;;;15.45;;
12224;SDS011;6175;50.956;11.064;2023-08-21T00:42:38;17.98;;;16.15;;
12224;SDS011;6175;50.956;11.064;2023-08-21T00:45:05;16.48;;;14.98;;
12224;SDS011;6175;50.956;11.064;2023-08-21T00:47:33;16.90;;;15.30;;
12224;SDS011;6175;50.956;11.064;2023-08-21T00:50:00;15.63;;;14.23;;
12224;SDS011;6175;50.956;11.064;2023-08-21T00:52:28;15.05;;;13.73;;
12224;SDS011;6175;50.956;11.064;2023-08-21T00:54:55;16.15;;;14.68;;
12224;SDS011;6175;50.956;11.064;2023-08-21T00:57:23;16.10;;;14.60;;
12224;SDS011;6175;50.956;11.064;2023-08-21T00:59:51;15.05;;;13.68;;
12224;SDS011;6175;50.956;11.064;2023-08-21T01:02:18;14.57;;;13.38;;
12224;SDS011;6175;50.956;11.064;2023-08-21T01:04:45;15.93;;;14.48;;
12224;SDS011;6175;50.956;11.064;2023-08-21T01:07:13;14.95;;;13.52;;
12224;SDS011;6175;50.956;11.064;2023-08-21T01:09:41;15.20;;;13.80;;
12224;SDS011;6175;50.956;11.064;2023-08-21T01:12:19;15.02;;;13.63;;
12224;SDS011;6175;50.956;11.064;2023-08-21T01:14:54;16.27;;;14.73;;
12224;SDS011;6175;50.956;11.064;2023-08-21T01:17:24;18.73;;;16.83;;
12224;SDS011;6175;50.956;11.064;2023-08-21T01:19:52;20.48;;;18.38;;
12224;SDS011;6175;50.956;11.064;2023-08-21T01:22:20;18.67;;;16.88;;
12224;SDS011;6175;50.956;11.064;2023-08-21T01:24:52;18.88;;;17.02;;
12224;SDS011;6175;50.956;11.064;2023-08-21T01:27:19;20.63;;;18.63;;
12224;SDS011;6175;50.956;11.064;2023-08-21T01:29:47;19.25;;;17.27;;
12224;SDS011;6175;50.956;11.064;2023-08-21T01:32:16;18.08;;;16.35;;
12224;SDS011;6175;50.956;11.064;2023-08-21T01:34:44;18.23;;;16.52;;
12224;SDS011;6175;50.956;11.064;2023-08-21T01:37:13;19.50;;;17.70;;
12224;SDS011;6175;50.956;11.064;2023-08-21T01:39:41;18.30;;;16.52;;
12224;SDS011;6175;50.956;11.064;2023-08-21T01:42:09;18.60;;;16.90;;
12224;SDS011;6175;50.956;11.064;2023-08-21T01:44:36;18.25;;;16.55;;
12224;SDS011;6175;50.956;11.064;2023-08-21T01:47:04;19.27;;;17.38;;
12224;SDS011;6175;50.956;11.064;2023-08-21T01:49:31;18.90;;;17.10;;
12224;SDS011;6175;50.956;11.064;2023-08-21T01:51:58;20.65;;;18.65;;
12224;SDS011;6175;50.956;11.064;2023-08-21T01:54:25;20.13;;;18.20;;
12224;SDS011;6175;50.956;11.064;2023-08-21T01:56:52;19.17;;;17.38;;
12224;SDS011;6175;50.956;11.064;2023-08-21T01:59:21;19.35;;;17.55;;
12224;SDS011;6175;50.956;11.064;2023-08-21T02:01:48;17.85;;;16.25;;
12224;SDS011;6175;50.956;11.064;2023-08-21T02:04:15;18.00;;;16.10;;
12224;SDS011;6175;50.956;11.064;2023-08-21T02:06:42;17.08;;;15.57;;
12224;SDS011;6175;50.956;11.064;2023-08-21T02:09:10;17.02;;;15.52;;
12224;SDS011;6175;50.956;11.064;2023-08-21T02:11:37;17.45;;;15.88;;
12224;SDS011;6175;50.956;11.064;2023-08-21T02:14:04;16.77;;;15.18;;
12224;SDS011;6175;50.956;11.064;2023-08-21T02:16:33;15.05;;;13.75;;
12224;SDS011;6175;50.956;11.064;2023-08-21T02:19:00;15.45;;;14.05;;
12224;SDS011;6175;50.956;11.064;2023-08-21T02:21:27;15.13;;;13.82;;
12224;SDS011;6175;50.956;11.064;2023-08-21T02:23:54;15.15;;;13.82;;
12224;SDS011;6175;50.956;11.064;2023-08-21T02:26:22;15.05;;;13.65;;
12224;SDS011;6175;50.956;11.064;2023-08-21T02:28:49;14.63;;;13.43;;
12224;SDS011;6175;50.956;11.064;2023-08-21T02:31:16;14.57;;;13.30;;
12224;SDS011;6175;50.956;11.064;2023-08-21T02:33:45;16.88;;;15.38;;
12224;SDS011;6175;50.956;11.064;2023-08-21T02:36:11;14.70;;;13.40;;
12224;SDS011;6175;50.956;11.064;2023-08-21T02:38:39;16.00;;;14.52;;
12224;SDS011;6175;50.956;11.064;2023-08-21T02:41:06;14.68;;;13.48;;
12224;SDS011;6175;50.956;11.064;2023-08-21T02:43:33;14.77;;;13.48;;
12224;SDS011;6175;50.956;11.064;2023-08-21T02:46:00;14.80;;;13.40;;
12224;SDS011;6175;50.956;11.064;2023-08-21T02:48:27;15.18;;;13.88;;
12224;SDS011;6175;50.956;11.064;2023-08-21T02:50:56;14.57;;;13.27;;
12224;SDS011;6175;50.956;11.064;2023-08-21T02:53:23;13.98;;;12.73;;
12224;SDS011;6175;50.956;11.064;2023-08-21T02:55:50;14.05;;;12.80;;
12224;SDS011;6175;50.956;11.064;2023-08-21T02:58:17;14.75;;;13.55;;
12224;SDS011;6175;50.956;11.064;2023-08-21T03:00:44;14.57;;;13.18;;
12224;SDS011;6175;50.956;11.064;2023-08-21T03:03:11;15.48;;;14.10;;
12224;SDS011;6175;50.956;11.064;2023-08-21T03:05:38;14.80;;;13.52;;
12224;SDS011;6175;50.956;11.064;2023-08-21T03:08:07;14.52;;;13.32;;
12224;SDS011;6175;50.956;11.064;2023-08-21T03:10:34;14.25;;;13.05;;
12224;SDS011;6175;50.956;11.064;2023-08-21T03:13:02;13.45;;;12.27;;
12224;SDS011;6175;50.956;11.064;2023-08-21T03:15:29;14.75;;;13.45;;
12224;SDS011;6175;50.956;11.064;2023-08-21T03:17:56;13.85;;;12.65;;
12224;SDS011;6175;50.956;11.064;2023-08-21T03:20:25;15.25;;;13.85;;
12224;SDS011;6175;50.956;11.064;2023-08-21T03:22:52;15.85;;;14.45;;
12224;SDS011;6175;50.956;11.064;2023-08-21T03:25:20;15.65;;;14.25;;
12224;SDS011;6175;50.956;11.064;2023-08-21T03:27:47;18.42;;;16.73;;
12224;SDS011;6175;50.956;11.064;2023-08-21T03:30:15;18.70;;;16.90;;
12224;SDS011;6175;50.956;11.064;2023-08-21T03:32:42;17.92;;;16.25;;
12224;SDS011;6175;50.956;11.064;2023-08-21T03:35:09;18.98;;;17.23;;
12224;SDS011;6175;50.956;11.064;2023-08-21T03:37:36;18.30;;;16.60;;
12224;SDS011;6175;50.956;11.064;2023-08-21T03:40:03;17.67;;;16.08;;
12224;SDS011;6175;50.956;11.064;2023-08-21T03:42:32;17.98;;;16.30;;
12224;SDS011;6175;50.956;11.064;2023-08-21T03:44:58;16.58;;;15.10;;
12224;SDS011;6175;50.956;11.064;2023-08-21T03:47:26;17.17;;;15.57;;
12224;SDS011;6175;50.956;11.064;2023-08-21T03:49:53;19.23;;;17.42;;
12224;SDS011;6175;50.956;11.064;2023-08-21T03:52:20;26.35;;;23.55;;
12224;SDS011;6175;50.956;11.064;2023-08-21T03:54:47;20.73;;;18.83;;
12224;SDS011;6175;50.956;11.064;2023-08-21T03:57:14;22.33;;;20.13;;
12224;SDS011;6175;50.956;11.064;2023-08-21T03:59:42;20.95;;;19.05;;
12224;SDS011;6175;50.956;11.064;2023-08-21T04:02:09;21.80;;;19.70;;
12224;SDS011;6175;50.956;11.064;2023-08-21T04:04:36;19.85;;;17.85;;
12224;SDS011;6175;50.956;11.064;2023-08-21T04:07:03;18.92;;;17.23;;
12224;SDS011;6175;50.956;11.064;2023-08-21T04:09:31;18.42;;;16.75;;
12224;SDS011;6175;50.956;11.064;2023-08-21T04:11:58;18.40;;;16.70;;
12224;SDS011;6175;50.956;11.064;2023-08-21T04:14:25;18.35;;;16.65;;
12224;SDS011;6175;50.956;11.064;2023-08-21T04:16:53;17.23;;;15.63;;
12224;SDS011;6175;50.956;11.064;2023-08-21T04:19:20;17.95;;;16.25;;
12224;SDS011;6175;50.956;11.064;2023-08-21T04:21:47;18.70;;;17.05;;
12224;SDS011;6175;50.956;11.064;2023-08-21T04:24:14;17.75;;;16.20;;
12224;SDS011;6175;50.956;11.064;2023-08-21T04:26:41;17.50;;;15.90;;
12224;SDS011;6175;50.956;11.064;2023-08-21T04:29:08;17.15;;;15.55;;
12224;SDS011;6175;50.956;11.064;2023-08-21T04:31:36;16.95;;;15.35;;
12224;SDS011;6175;50.956;11.064;2023-08-21T04:34:04;16.48;;;15.07;;
12224;SDS011;6175;50.956;11.064;2023-08-21T04:36:31;18.38;;;16.67;;
12224;SDS011;6175;50.956;11.064;2023-08-21T04:38:58;16.35;;;14.95;;
12224;SDS011;6175;50.956;11.064;2023-08-21T04:41:25;15.60;;;14.20;;
12224;SDS011;6175;50.956;11.064;2023-08-21T04:43:53;16.08;;;14.65;;
12224;SDS011;6175;50.956;11.064;2023-08-21T04:46:20;17.08;;;15.57;;
12224;SDS011;6175;50.956;11.064;2023-08-21T04:48:46;17.30;;;15.73;;
12224;SDS011;6175;50.956;11.064;2023-08-21T04:51:15;22.75;;;20.65;;
12224;SDS011;6175;50.956;11.064;2023-08-21T04:53:42;25.00;;;22.70;;
12224;SDS011;6175;50.956;11.064;2023-08-21T04:56:09;21.65;;;19.65;;
12224;SDS011;6175;50.956;11.064;2023-08-21T04:58:36;24.13;;;21.83;;
12224;SDS011;6175;50.956;11.064;2023-08-21T05:01:04;23.48;;;21.17;;
12224;SDS011;6175;50.956;11.064;2023-08-21T05:03:31;22.00;;;19.98;;
12224;SDS011;6175;50.956;11.064;2023-08-21T05:05:58;19.92;;;18.02;;
12224;SDS011;6175;50.956;11.064;2023-08-21T05:08:26;23.38;;;21.08;;
12224;SDS011;6175;50.956;11.064;2023-08-21T05:10:54;21.35;;;19.17;;
12224;SDS011;6175;50.956;11.064;2023-08-21T05:13:22;21.15;;;19.15;;
12224;SDS011;6175;50.956;11.064;2023-08-21T05:15:52;17.55;;;15.98;;
12224;SDS011;6175;50.956;11.064;2023-08-21T05:18:20;19.33;;;17.45;;
12224;SDS011;6175;50.956;11.064;2023-08-21T05:20:47;19.33;;;17.42;;
12224;SDS011;6175;50.956;11.064;2023-08-21T05:23:14;18.42;;;16.63;;
12224;SDS011;6175;50.956;11.064;2023-08-21T05:25:43;18.52;;;16.67;;
12224;SDS011;6175;50.956;11.064;2023-08-21T05:28:10;18.17;;;16.48;;
12224;SDS011;6175;50.956;11.064;2023-08-21T05:30:37;17.75;;;15.95;;
12224;SDS011;6175;50.956;11.064;2023-08-21T05:33:04;16.83;;;15.32;;
12224;SDS011;6175;50.956;11.064;2023-08-21T05:35:32;17.98;;;16.35;;
12224;SDS011;6175;50.956;11.064;2023-08-21T05:38:00;17.95;;;16.25;;
12224;SDS011;6175;50.956;11.064;2023-08-21T05:40:27;17.17;;;15.70;;
12224;SDS011;6175;50.956;11.064;2023-08-21T05:42:56;19.63;;;17.73;;
12224;SDS011;6175;50.956;11.064;2023-08-21T05:45:23;19.73;;;17.80;;
12224;SDS011;6175;50.956;11.064;2023-08-21T05:47:50;18.38;;;16.58;;
12224;SDS011;6175;50.956;11.064;2023-08-21T05:50:17;17.13;;;15.52;;
12224;SDS011;6175;50.956;11.064;2023-08-21T05:52:45;19.20;;;17.33;;
12224;SDS011;6175;50.956;11.064;2023-08-21T05:55:12;20.17;;;18.10;;
12224;SDS011;6175;50.956;11.064;2023-08-21T05:57:39;20.80;;;18.58;;
12224;SDS011;6175;50.956;11.064;2023-08-21T06:00:08;16.40;;;14.90;;
12224;SDS011;6175;50.956;11.064;2023-08-21T06:02:36;16.23;;;14.68;;
12224;SDS011;6175;50.956;11.064;2023-08-21T06:05:03;17.25;;;15.65;;
12224;SDS011;6175;50.956;11.064;2023-08-21T06:07:32;17.55;;;15.88;;
12224;SDS011;6175;50.956;11.064;2023-08-21T06:09:59;15.35;;;13.85;;
12224;SDS011;6175;50.956;11.064;2023-08-21T06:12:26;14.00;;;12.70;;
12224;SDS011;6175;50.956;11.064;2023-08-21T06:14:53;17.73;;;16.08;;
12224;SDS011;6175;50.956;11.064;2023-08-21T06:17:21;14.48;;;13.05;;
12224;SDS011;6175;50.956;11.064;2023-08-21T06:19:49;14.65;;;13.35;;
12224;SDS011;6175;50.956;11.064;2023-08-21T06:22:16;15.10;;;13.63;;
12224;SDS011;6175;50.956;11.064;2023-08-21T06:24:43;14.57;;;13.27;;
12224;SDS011;6175;50.956;11.064;2023-08-21T06:27:10;14.68;;;13.27;;
12224;SDS011;6175;50.956;11.064;2023-08-21T06:29:37;12.90;;;11.70;;
12224;SDS011;6175;50.956;11.064;2023-08-21T06:32:05;13.27;;;12.07;;
12224;SDS011;6175;50.956;11.064;2023-08-21T06:34:34;13.20;;;12.00;;
12224;SDS011;6175;50.956;11.064;2023-08-21T06:37:00;14.60;;;13.20;;
12224;SDS011;6175;50.956;11.064;2023-08-21T06:39:28;13.38;;;12.13;;
12224;SDS011;6175;50.956;11.064;2023-08-21T06:41:55;12.05;;;11.00;;
12224;SDS011;6175;50.956;11.064;2023-08-21T06:44:23;13.07;;;11.85;;
12224;SDS011;6175;50.956;11.064;2023-08-21T06:46:50;13.40;;;12.15;;
12224;SDS011;6175;50.956;11.064;2023-08-21T06:49:17;12.93;;;11.60;;
12224;SDS011;6175;50.956;11.064;2023-08-21T06:51:45;14.55;;;13.25;;
12224;SDS011;6175;50.956;11.064;2023-08-21T06:54:13;11.05;;;10.13;;
12224;SDS011;6175;50.956;11.064;2023-08-21T06:56:40;13.23;;;12.02;;
12224;SDS011;6175;50.956;11.064;2023-08-21T06:59:07;14.98;;;13.45;;
12224;SDS011;6175;50.956;11.064;2023-08-21T07:01:34;12.32;;;11.20;;
12224;SDS011;6175;50.956;11.064;2023-08-21T07:04:01;12.73;;;11.43;;
12224;SDS011;6175;50.956;11.064;2023-08-21T07:06:29;12.23;;;11.13;;
12224;SDS011;6175;50.956;11.064;2023-08-21T07:08:58;11.20;;;10.10;;
12224;SDS011;6175;50.956;11.064;2023-08-21T07:11:24;9.93;;;9.02;;
12224;SDS011;6175;50.956;11.064;2023-08-21T07:13:52;15.23;;;13.60;;
12224;SDS011;6175;50.956;11.064;2023-08-21T07:16:19;12.68;;;11.45;;
12224;SDS011;6175;50.956;11.064;2023-08-21T07:18:46;9.80;;;8.98;;
12224;SDS011;6175;50.956;11.064;2023-08-21T07:21:13;9.45;;;8.43;;
12224;SDS011;6175;50.956;11.064;2023-08-21T07:23:41;8.93;;;8.13;;
12224;SDS011;6175;50.956;11.064;2023-08-21T07:26:09;7.65;;;6.85;;
12224;SDS011;6175;50.956;11.064;2023-08-21T07:28:36;7.38;;;6.43;;
12224;SDS011;6175;50.956;11.064;2023-08-21T07:31:04;7.07;;;6.38;;
12224;SDS011;6175;50.956;11.064;2023-08-21T07:33:31;6.85;;;6.25;;
12224;SDS011;6175;50.956;11.064;2023-08-21T07:35:58;8.50;;;6.47;;
12224;SDS011;6175;50.956;11.064;2023-08-21T07:38:26;7.70;;;6.40;;
12224;SDS011;6175;50.956;11.064;2023-08-21T07:41:01;6.07;;;5.47;;
12224;SDS011;6175;50.956;11.064;2023-08-21T07:43:31;6.32;;;5.75;;
12224;SDS011;6175;50.956;11.064;2023-08-21T07:45:58;7.03;;;6.43;;
12224;SDS011;6175;50.956;11.064;2023-08-21T07:48:27;6.47;;;5.88;;
12224;SDS011;6175;50.956;11.064;2023-08-21T07:50:54;7.75;;;7.05;;
12224;SDS011;6175;50.956;11.064;2023-08-21T07:53:22;7.50;;;6.75;;
12224;SDS011;6175;50.956;11.064;2023-08-21T07:55:49;7.50;;;6.15;;
12224;SDS011;6175;50.956;11.064;2023-08-21T07:58:16;7.28;;;6.68;;
12224;SDS011;6175;50.956;11.064;2023-08-21T08:00:44;7.22;;;6.65;;
12224;SDS011;6175;50.956;11.064;2023-08-21T08:03:13;8.32;;;7.15;;
12224;SDS011;6175;50.956;11.064;2023-08-21T08:05:40;7.70;;;7.10;;
12224;SDS011;6175;50.956;11.064;2023-08-21T08:08:08;6.50;;;6.00;;
12224;SDS011;6175;50.956;11.064;2023-08-21T08:10:36;7.60;;;6.75;;
12224;SDS011;6175;50.956;11.064;2023-08-21T08:13:04;8.73;;;7.68;;
12224;SDS011;6175;50.956;11.064;2023-08-21T08:15:31;7.82;;;7.03;;
12224;SDS011;6175;50.956;11.064;2023-08-21T08:18:01;8.30;;;7.50;;
12224;SDS011;6175;50.956;11.064;2023-08-21T08:20:28;9.50;;;8.50;;
12224;SDS011;6175;50.956;11.064;2023-08-21T08:22:56;9.40;;;8.35;;
12224;SDS011;6175;50.956;11.064;2023-08-21T08:25:23;7.93;;;7.13;;
12224;SDS011;6175;50.956;11.064;2023-08-21T08:27:51;8.48;;;7.57;;
12224;SDS011;6175;50.956;11.064;2023-08-21T08:30:18;8.82;;;7.68;;
12224;SDS011;6175;50.956;11.064;2023-08-21T08:32:45;8.52;;;7.75;;
12224;SDS011;6175;50.956;11.064;2023-08-21T08:35:14;7.60;;;7.00;;
12224;SDS011;6175;50.956;11.064;2023-08-21T08:37:41;8.35;;;7.60;;
12224;SDS011;6175;50.956;11.064;2023-08-21T08:40:09;10.57;;;9.52;;
12224;SDS011;6175;50.956;11.064;2023-08-21T08:42:37;8.73;;;7.82;;
12224;SDS011;6175;50.956;11.064;2023-08-21T08:45:05;8.50;;;7.70;;
12224;SDS011;6175;50.956;11.064;2023-08-21T08:47:32;7.65;;;6.85;;
12224;SDS011;6175;50.956;11.064;2023-08-21T08:50:01;8.65;;;7.85;;
12224;SDS011;6175;50.956;11.064;2023-08-21T08:52:31;7.20;;;6.50;;
12224;SDS011;6175;50.956;11.064;2023-08-21T08:55:01;9.15;;;8.20;;
12224;SDS011;6175;50.956;11.064;2023-08-21T08:57:28;12.05;;;7.70;;
12224;SDS011;6175;50.956;11.064;2023-08-21T08:59:55;7.43;;;6.75;;
12224;SDS011;6175;50.956;11.064;2023-08-21T09:02:24;7.80;;;7.05;;
12224;SDS011;6175;50.956;11.064;2023-08-21T09:04:51;8.07;;;7.28;;
12224;SDS011;6175;50.956;11.064;2023-08-21T09:07:19;7.97;;;7.28;;
12224;SDS011;6175;50.956;11.064;2023-08-21T09:09:48;7.63;;;6.93;;
12224;SDS011;6175;50.956;11.064;2023-08-21T09:12:17;7.97;;;7.15;;
12224;SDS011;6175;50.956;11.064;2023-08-21T09:14:45;8.60;;;7.80;;
12224;SDS011;6175;50.956;11.064;2023-08-21T09:17:12;8.32;;;7.53;;
12224;SDS011;6175;50.956;11.064;2023-08-21T09:19:39;7.47;;;6.78;;
12224;SDS011;6175;50.956;11.064;2023-08-21T09:22:07;7.82;;;7.10;;
12224;SDS011;6175;50.956;11.064;2023-08-21T09:24:35;7.72;;;7.13;;
12224;SDS011;6175;50.956;11.064;2023-08-21T09:27:03;8.65;;;7.72;;
12224;SDS011;6175;50.956;11.064;2023-08-21T09:29:38;7.90;;;7.20;;
12224;SDS011;6175;50.956;11.064;2023-08-21T09:32:06;8.20;;;7.50;;
12224;SDS011;6175;50.956;11.064;2023-08-21T09:34:33;7.15;;;6.55;;
12224;SDS011;6175;50.956;11.064;2023-08-21T09:37:04;7.90;;;7.20;;
12224;SDS011;6175;50.956;11.064;2023-08-21T09:39:33;7.90;;;7.20;;
12224;SDS011;6175;50.956;11.064;2023-08-21T09:42:01;8.50;;;7.60;;
12224;SDS011;6175;50.956;11.064;2023-08-21T09:44:29;8.43;;;7.70;;
12224;SDS011;6175;50.956;11.064;2023-08-21T09:47:01;8.45;;;7.45;;
12224;SDS011;6175;50.956;11.064;2023-08-21T09:49:28;8.50;;;7.75;;
12224;SDS011;6175;50.956;11.064;2023-08-21T09:51:56;7.40;;;6.80;;
12224;SDS011;6175;50.956;11.064;2023-08-21T09:54:24;7.97;;;7.28;;
12224;SDS011;6175;50.956;11.064;2023-08-21T09:56:51;8.20;;;7.47;;
12224;SDS011;6175;50.956;11.064;2023-08-21T09:59:18;9.10;;;8.27;;
12224;SDS011;6175;50.956;11.064;2023-08-21T10:01:47;9.45;;;8.20;;
12224;SDS011;6175;50.956;11.064;2023-08-21T10:04:16;9.18;;;8.38;;
12224;SDS011;6175;50.956;11.064;2023-08-21T10:06:44;9.55;;;7.75;;
12224;SDS011;6175;50.956;11.064;2023-08-21T10:09:11;8.23;;;7.53;;
12224;SDS011;6175;50.956;11.064;2023-08-21T10:11:39;8.02;;;7.32;;
12224;SDS011;6175;50.956;11.064;2023-08-21T10:14:07;9.07;;;8.27;;
12224;SDS011;6175;50.956;11.064;2023-08-21T10:16:34;7.78;;;7.10;;
12224;SDS011;6175;50.956;11.064;2023-08-21T10:19:03;8.30;;;7.55;;
12224;SDS011;6175;50.956;11.064;2023-08-21T10:21:34;8.90;;;7.85;;
12224;SDS011;6175;50.956;11.064;2023-08-21T10:24:02;8.18;;;7.57;;
12224;SDS011;6175;50.956;11.064;2023-08-21T10:26:29;7.63;;;6.97;;
12224;SDS011;6175;50.956;11.064;2023-08-21T10:28:58;8.40;;;7.70;;
12224;SDS011;6175;50.956;11.064;2023-08-21T10:31:31;8.80;;;8.00;;
12224;SDS011;6175;50.956;11.064;2023-08-21T10:33:59;9.10;;;8.20;;
12224;SDS011;6175;50.956;11.064;2023-08-21T10:39:23;8.00;;;7.30;;
12224;SDS011;6175;50.956;11.064;2023-08-21T10:41:53;8.48;;;7.65;;
12224;SDS011;6175;50.956;11.064;2023-08-21T10:44:34;8.30;;;7.57;;
12224;SDS011;6175;50.956;11.064;2023-08-21T10:47:13;7.78;;;7.13;;
12224;SDS011;6175;50.956;11.064;2023-08-21T10:49:41;8.48;;;7.80;;
12224;SDS011;6175;50.956;11.064;2023-08-21T10:52:09;8.90;;;8.07;;
12224;SDS011;6175;50.956;11.064;2023-08-21T10:54:44;7.85;;;7.20;;
12224;SDS011;6175;50.956;11.064;2023-08-21T10:57:11;7.50;;;6.80;;
12224;SDS011;6175;50.956;11.064;2023-08-21T10:59:38;8.57;;;7.88;;
12224;SDS011;6175;50.956;11.064;2023-08-21T11:02:05;7.43;;;6.82;;
12224;SDS011;6175;50.956;11.064;2023-08-21T11:04:39;8.52;;;7.72;;
12224;SDS011;6175;50.956;11.064;2023-08-21T11:07:07;7.38;;;6.78;;
12224;SDS011;6175;50.956;11.064;2023-08-21T11:09:35;7.53;;;6.70;;
12224;SDS011;6175;50.956;11.064;2023-08-21T11:12:06;7.63;;;6.93;;
12224;SDS011;6175;50.956;11.064;2023-08-21T11:14:33;7.50;;;6.75;;
12224;SDS011;6175;50.956;11.064;2023-08-21T11:17:01;8.10;;;7.30;;
12224;SDS011;6175;50.956;11.064;2023-08-21T11:19:29;7.30;;;6.47;;
12224;SDS011;6175;50.956;11.064;2023-08-21T11:21:57;8.15;;;7.35;;
12224;SDS011;6175;50.956;11.064;2023-08-21T11:24:29;7.72;;;7.10;;
12224;SDS011;6175;50.956;11.064;2023-08-21T11:26:56;7.70;;;7.00;;
12224;SDS011;6175;50.956;11.064;2023-08-21T11:29:25;7.53;;;6.82;;
12224;SDS011;6175;50.956;11.064;2023-08-21T11:31:52;7.20;;;6.60;;
12224;SDS011;6175;50.956;11.064;2023-08-21T11:34:20;6.95;;;6.20;;
12224;SDS011;6175;50.956;11.064;2023-08-21T11:36:48;7.47;;;6.72;;
12224;SDS011;6175;50.956;11.064;2023-08-21T11:39:15;7.13;;;6.53;;
12224;SDS011;6175;50.956;11.064;2023-08-21T11:41:55;7.15;;;5.78;;
12224;SDS011;6175;50.956;11.064;2023-08-21T11:44:23;5.88;;;5.28;;
12224;SDS011;6175;50.956;11.064;2023-08-21T11:46:52;6.55;;;5.53;;
12224;SDS011;6175;50.956;11.064;2023-08-21T11:49:19;5.22;;;4.65;;
12224;SDS011;6175;50.956;11.064;2023-08-21T11:51:47;5.35;;;4.85;;
12224;SDS011;6175;50.956;11.064;2023-08-21T11:54:16;5.72;;;5.32;;
12224;SDS011;6175;50.956;11.064;2023-08-21T11:56:46;6.22;;;5.63;;
12224;SDS011;6175;50.956;11.064;2023-08-21T11:59:20;6.22;;;5.65;;
12224;SDS011;6175;50.956;11.064;2023-08-21T12:01:49;6.80;;;6.10;;
12224;SDS011;6175;50.956;11.064;2023-08-21T12:04:18;6.07;;;5.57;;
12224;SDS011;6175;50.956;11.064;2023-08-21T12:06:45;7.15;;;5.75;;
12224;SDS011;6175;50.956;11.064;2023-08-21T12:09:12;6.70;;;6.07;;
12224;SDS011;6175;50.956;11.064;2023-08-21T12:11:39;6.28;;;5.80;;
12224;SDS011;6175;50.956;11.064;2023-08-21T12:14:06;6.35;;;5.75;;
12224;SDS011;6175;50.956;11.064;2023-08-21T12:16:33;5.60;;;5.20;;
12224;SDS011;6175;50.956;11.064;2023-08-21T12:19:02;5.75;;;5.25;;
12224;SDS011;6175;50.956;11.064;2023-08-21T12:21:29;5.90;;;5.40;;
12224;SDS011;6175;50.956;11.064;2023-08-21T12:23:59;6.00;;;5.40;;
12224;SDS011;6175;50.956;11.064;2023-08-21T12:26:26;6.00;;;5.32;;
12224;SDS011;6175;50.956;11.064;2023-08-21T12:28:53;5.50;;;5.00;;
12224;SDS011;6175;50.956;11.064;2023-08-21T12:31:20;5.90;;;5.18;;
12224;SDS011;6175;50.956;11.064;2023-08-21T12:33:47;5.47;;;4.97;;
12224;SDS011;6175;50.956;11.064;2023-08-21T12:36:16;6.20;;;5.60;;
12224;SDS011;6175;50.956;11.064;2023-08-21T12:38:43;5.80;;;5.30;;
12224;SDS011;6175;50.956;11.064;2023-08-21T12:41:10;5.80;;;5.20;;
12224;SDS011;6175;50.956;11.064;2023-08-21T12:43:37;6.05;;;5.55;;
12224;SDS011;6175;50.956;11.064;2023-08-21T12:46:04;5.63;;;5.22;;
12224;SDS011;6175;50.956;11.064;2023-08-21T12:48:31;6.38;;;5.80;;
12224;SDS011;6175;50.956;11.064;2023-08-21T12:50:58;7.93;;;5.68;;
12224;SDS011;6175;50.956;11.064;2023-08-21T12:53:26;6.07;;;5.47;;
12224;SDS011;6175;50.956;11.064;2023-08-21T12:55:53;7.13;;;6.00;;
12224;SDS011;6175;50.956;11.064;2023-08-21T12:58:20;5.65;;;5.15;;
12224;SDS011;6175;50.956;11.064;2023-08-21T13:00:48;6.60;;;5.75;;
12224;SDS011;6175;50.956;11.064;2023-08-21T13:03:15;5.88;;;5.35;;
12224;SDS011;6175;50.956;11.064;2023-08-21T13:05:42;5.63;;;5.13;;
12224;SDS011;6175;50.956;11.064;2023-08-21T13:08:09;6.00;;;5.20;;
12224;SDS011;6175;50.956;11.064;2023-08-21T13:10:38;5.68;;;5.25;;
12224;SDS011;6175;50.956;11.064;2023-08-21T13:13:05;6.15;;;5.65;;
12224;SDS011;6175;50.956;11.064;2023-08-21T13:15:32;5.55;;;5.10;;
12224;SDS011;6175;50.956;11.064;2023-08-21T13:17:59;6.47;;;5.72;;
12224;SDS011;6175;50.956;11.064;2023-08-21T13:20:26;5.88;;;5.38;;
12224;SDS011;6175;50.956;11.064;2023-08-21T13:22:53;5.45;;;4.78;;
12224;SDS011;6175;50.956;11.064;2023-08-21T13:25:21;6.22;;;5.28;;
12224;SDS011;6175;50.956;11.064;2023-08-21T13:27:51;5.50;;;5.07;;
12224;SDS011;6175;50.956;11.064;2023-08-21T13:30:18;5.13;;;4.68;;
12224;SDS011;6175;50.956;11.064;2023-08-21T13:32:47;5.40;;;5.00;;
12224;SDS011;6175;50.956;11.064;2023-08-21T13:35:14;5.50;;;5.00;;
12224;SDS011;6175;50.956;11.064;2023-08-21T13:37:42;5.60;;;5.10;;
12224;SDS011;6175;50.956;11.064;2023-08-21T13:40:09;5.43;;;4.97;;
12224;SDS011;6175;50.956;11.064;2023-08-21T13:42:39;5.20;;;4.70;;
12224;SDS011;6175;50.956;11.064;2023-08-21T13:45:09;5.63;;;4.85;;
12224;SDS011;6175;50.956;11.064;2023-08-21T13:47:37;5.47;;;5.05;;
12224;SDS011;6175;50.956;11.064;2023-08-21T13:50:05;6.13;;;4.82;;
12224;SDS011;6175;50.956;11.064;2023-08-21T13:52:33;5.47;;;4.25;;
12224;SDS011;6175;50.956;11.064;2023-08-21T13:55:00;5.95;;;4.60;;
12224;SDS011;6175;50.956;11.064;2023-08-21T13:57:29;4.97;;;4.57;;
12224;SDS011;6175;50.956;11.064;2023-08-21T13:59:56;4.80;;;4.40;;
12224;SDS011;6175;50.956;11.064;2023-08-21T14:02:25;5.38;;;4.05;;
12224;SDS011;6175;50.956;11.064;2023-08-21T14:04:52;6.70;;;5.00;;
12224;SDS011;6175;50.956;11.064;2023-08-21T14:07:19;4.85;;;4.50;;
12224;SDS011;6175;50.956;11.064;2023-08-21T14:09:46;4.80;;;4.40;;
12224;SDS011;6175;50.956;11.064;2023-08-21T14:12:13;5.43;;;4.78;;
12224;SDS011;6175;50.956;11.064;2023-08-21T14:14:40;4.80;;;4.40;;
12224;SDS011;6175;50.956;11.064;2023-08-21T14:17:08;4.60;;;4.13;;
12224;SDS011;6175;50.956;11.064;2023-08-21T14:19:36;5.15;;;4.65;;
12224;SDS011;6175;50.956;11.064;2023-08-21T14:22:03;6.20;;;4.88;;
12224;SDS011;6175;50.956;11.064;2023-08-21T14:24:30;4.47;;;4.07;;
12224;SDS011;6175;50.956;11.064;2023-08-21T14:26:57;4.60;;;4.20;;
12224;SDS011;6175;50.956;11.064;2023-08-21T14:29:25;4.90;;;4.38;;
12224;SDS011;6175;50.956;11.064;2023-08-21T14:31:52;4.55;;;3.63;;
12224;SDS011;6175;50.956;11.064;2023-08-21T14:34:19;4.38;;;3.97;;
12224;SDS011;6175;50.956;11.064;2023-08-21T14:36:48;4.22;;;3.83;;
12224;SDS011;6175;50.956;11.064;2023-08-21T14:39:16;7.38;;;4.25;;